sensor_id;sensor_type;location;lat;lon;timestamp;pressure;altitude;pressure_sealevel;temperature;humidity
11327;BME280;5718;42.138;24.762;2023-07-31T00:01:06;98924.00;;;24.78;78.02
11327;BME280;5718;42.138;24.762;2023-07-31T00:03:33;98923.59;;;24.97;77.57
11327;BME280;5718;42.138;24.762;2023-07-31T00:06:00;98928.16;;;24.95;78.25
11327;BME280;5718;42.138;24.762;2023-07-31T00:08:28;98924.00;;;24.78;79.27
11327;BME280;5718;42.138;24.762;2023-07-31T00:10:54;98932.69;;;24.68;79.07
11327;BME280;5718;42.138;24.762;2023-07-31T00:13:21;98927.28;;;24.82;77.39
11327;BME280;5718;42.138;24.762;2023-07-31T00:15:48;98923.09;;;24.65;79.96
11327;BME280;5718;42.138;24.762;2023-07-31T00:18:15;98923.72;;;24.56;80.71
11327;BME280;5718;42.138;24.762;2023-07-31T00:20:42;98932.25;;;24.61;79.63
11327;BME280;5718;42.138;24.762;2023-07-31T00:23:08;98946.50;;;24.73;79.42
11327;BME280;5718;42.138;24.762;2023-07-31T00:25:36;98945.75;;;24.71;79.71
11327;BME280;5718;42.138;24.762;2023-07-31T00:28:03;98944.63;;;24.75;79.16
11327;BME280;5718;42.138;24.762;2023-07-31T00:30:30;98950.78;;;24.88;78.82
11327;BME280;5718;42.138;24.762;2023-07-31T00:32:57;98944.63;;;24.75;79.26
11327;BME280;5718;42.138;24.762;2023-07-31T00:35:23;98936.31;;;24.67;80.47
11327;BME280;5718;42.138;24.762;2023-07-31T00:37:50;98939.25;;;24.62;81.08
11327;BME280;5718;42.138;24.762;2023-07-31T00:40:17;98950.63;;;24.64;81.04
11327;BME280;5718;42.138;24.762;2023-07-31T00:42:45;98945.25;;;24.78;80.48
11327;BME280;5718;42.138;24.762;2023-07-31T00:45:12;98938.69;;;24.57;82.13
11327;BME280;5718;42.138;24.762;2023-07-31T00:47:38;98947.25;;;24.35;84.04
11327;BME280;5718;42.138;24.762;2023-07-31T00:50:07;98936.25;;;24.54;83.12
11327;BME280;5718;42.138;24.762;2023-07-31T00:52:34;98941.63;;;24.67;82.10
11327;BME280;5718;42.138;24.762;2023-07-31T00:55:01;98946.94;;;24.67;81.84
11327;BME280;5718;42.138;24.762;2023-07-31T00:57:28;98950.78;;;24.75;81.30
11327;BME280;5718;42.138;24.762;2023-07-31T00:59:56;98956.94;;;24.88;79.33
11327;BME280;5718;42.138;24.762;2023-07-31T01:02:23;98946.03;;;24.93;78.72
11327;BME280;5718;42.138;24.762;2023-07-31T01:04:50;98952.09;;;24.95;80.39
11327;BME280;5718;42.138;24.762;2023-07-31T01:07:21;98953.50;;;24.74;82.43
11327;BME280;5718;42.138;24.762;2023-07-31T01:09:54;98956.09;;;24.75;81.76
11327;BME280;5718;42.138;24.762;2023-07-31T01:12:27;98956.22;;;24.86;81.10
11327;BME280;5718;42.138;24.762;2023-07-31T01:15:04;98959.22;;;24.94;79.61
11327;BME280;5718;42.138;24.762;2023-07-31T01:17:31;98955.53;;;24.70;81.17
11327;BME280;5718;42.138;24.762;2023-07-31T01:20:02;98956.59;;;24.41;84.04
11327;BME280;5718;42.138;24.762;2023-07-31T01:22:47;98960.44;;;24.49;83.65
11327;BME280;5718;42.138;24.762;2023-07-31T01:25:26;98959.50;;;24.90;80.72
11327;BME280;5718;42.138;24.762;2023-07-31T01:28:02;98955.41;;;24.59;82.98
11327;BME280;5718;42.138;24.762;2023-07-31T01:30:33;98951.78;;;24.60;82.51
11327;BME280;5718;42.138;24.762;2023-07-31T01:33:03;98955.00;;;24.38;84.70
11327;BME280;5718;42.138;24.762;2023-07-31T01:35:33;98955.91;;;24.51;83.05
11327;BME280;5718;42.138;24.762;2023-07-31T01:38:00;98964.97;;;24.61;82.49
11327;BME280;5718;42.138;24.762;2023-07-31T01:40:26;98964.38;;;24.29;85.17
11327;BME280;5718;42.138;24.762;2023-07-31T01:42:53;98954.81;;;24.27;86.44
11327;BME280;5718;42.138;24.762;2023-07-31T01:45:21;98957.72;;;24.09;87.83
11327;BME280;5718;42.138;24.762;2023-07-31T01:47:48;98959.81;;;24.04;87.65
11327;BME280;5718;42.138;24.762;2023-07-31T01:50:15;98953.53;;;24.05;87.83
11327;BME280;5718;42.138;24.762;2023-07-31T01:52:41;98953.75;;;24.02;87.89
11327;BME280;5718;42.138;24.762;2023-07-31T01:55:08;98943.31;;;23.99;88.26
11327;BME280;5718;42.138;24.762;2023-07-31T01:57:36;98943.31;;;23.99;89.08
11327;BME280;5718;42.138;24.762;2023-07-31T02:00:04;98943.97;;;24.17;87.54
11327;BME280;5718;42.138;24.762;2023-07-31T02:02:32;98944.38;;;24.38;85.79
11327;BME280;5718;42.138;24.762;2023-07-31T02:04:58;98950.28;;;24.15;85.92
11327;BME280;5718;42.138;24.762;2023-07-31T02:07:25;98953.63;;;24.18;85.83
11327;BME280;5718;42.138;24.762;2023-07-31T02:09:52;98947.09;;;24.09;86.78
11327;BME280;5718;42.138;24.762;2023-07-31T02:12:19;98958.34;;;24.13;87.07
11327;BME280;5718;42.138;24.762;2023-07-31T02:14:45;98958.13;;;24.30;85.79
11327;BME280;5718;42.138;24.762;2023-07-31T02:17:12;98953.31;;;24.23;86.21
11327;BME280;5718;42.138;24.762;2023-07-31T02:19:40;98948.34;;;24.04;87.37
11327;BME280;5718;42.138;24.762;2023-07-31T02:22:07;98948.19;;;24.34;84.07
11327;BME280;5718;42.138;24.762;2023-07-31T02:24:34;98950.09;;;24.32;83.69
11327;BME280;5718;42.138;24.762;2023-07-31T02:27:00;98945.69;;;24.31;86.27
11327;BME280;5718;42.138;24.762;2023-07-31T02:29:27;98946.19;;;24.37;86.22
11327;BME280;5718;42.138;24.762;2023-07-31T02:31:54;98934.31;;;24.43;87.90
11327;BME280;5718;42.138;24.762;2023-07-31T02:34:20;98939.75;;;24.42;90.04
11327;BME280;5718;42.138;24.762;2023-07-31T02:36:48;98939.63;;;24.43;92.14
11327;BME280;5718;42.138;24.762;2023-07-31T02:39:15;98923.53;;;24.59;96.80
11327;BME280;5718;42.138;24.762;2023-07-31T02:41:42;98928.41;;;24.65;99.43
11327;BME280;5718;42.138;24.762;2023-07-31T02:44:08;98929.25;;;24.53;100.00
11327;BME280;5718;42.138;24.762;2023-07-31T02:46:35;98929.47;;;24.50;100.00
11327;BME280;5718;42.138;24.762;2023-07-31T02:49:02;98923.22;;;24.63;100.00
11327;BME280;5718;42.138;24.762;2023-07-31T02:51:29;98924.66;;;24.42;100.00
11327;BME280;5718;42.138;24.762;2023-07-31T02:53:57;98919.53;;;24.66;100.00
11327;BME280;5718;42.138;24.762;2023-07-31T02:56:23;98921.56;;;24.75;100.00
11327;BME280;5718;42.138;24.762;2023-07-31T02:58:50;98919.06;;;24.59;100.00
11327;BME280;5718;42.138;24.762;2023-07-31T03:01:17;98914.72;;;24.58;100.00
11327;BME280;5718;42.138;24.762;2023-07-31T03:03:43;98916.06;;;24.51;100.00
11327;BME280;5718;42.138;24.762;2023-07-31T03:06:10;98909.81;;;24.52;100.00
11327;BME280;5718;42.138;24.762;2023-07-31T03:08:37;98908.28;;;24.48;100.00
11327;BME280;5718;42.138;24.762;2023-07-31T03:11:05;98918.31;;;24.57;100.00
11327;BME280;5718;42.138;24.762;2023-07-31T03:13:32;98907.16;;;24.52;100.00
11327;BME280;5718;42.138;24.762;2023-07-31T03:15:58;98907.69;;;24.57;100.00
11327;BME280;5718;42.138;24.762;2023-07-31T03:18:25;98923.81;;;24.27;100.00
11327;BME280;5718;42.138;24.762;2023-07-31T03:20:52;98911.03;;;23.93;100.00
11327;BME280;5718;42.138;24.762;2023-07-31T03:23:18;98924.22;;;23.51;100.00
11327;BME280;5718;42.138;24.762;2023-07-31T03:25:55;98931.00;;;23.13;100.00
11327;BME280;5718;42.138;24.762;2023-07-31T03:28:24;98938.00;;;22.84;100.00
11327;BME280;5718;42.138;24.762;2023-07-31T03:30:51;98949.47;;;22.84;100.00
11327;BME280;5718;42.138;24.762;2023-07-31T03:33:17;98949.84;;;22.78;100.00
11327;BME280;5718;42.138;24.762;2023-07-31T03:35:44;98955.38;;;22.43;100.00
11327;BME280;5718;42.138;24.762;2023-07-31T03:38:11;98964.28;;;22.42;100.00
11327;BME280;5718;42.138;24.762;2023-07-31T03:40:38;98964.84;;;22.48;100.00
11327;BME280;5718;42.138;24.762;2023-07-31T03:43:04;98974.34;;;22.36;100.00
11327;BME280;5718;42.138;24.762;2023-07-31T03:45:33;98967.69;;;22.29;100.00
11327;BME280;5718;42.138;24.762;2023-07-31T03:47:59;98975.34;;;22.33;100.00
11327;BME280;5718;42.138;24.762;2023-07-31T03:50:26;98990.56;;;22.30;100.00
11327;BME280;5718;42.138;24.762;2023-07-31T03:52:53;98998.59;;;22.28;100.00
11327;BME280;5718;42.138;24.762;2023-07-31T03:55:20;99002.00;;;22.30;100.00
11327;BME280;5718;42.138;24.762;2023-07-31T03:57:47;99008.31;;;22.12;100.00
11327;BME280;5718;42.138;24.762;2023-07-31T04:00:14;99014.00;;;21.71;100.00
11327;BME280;5718;42.138;24.762;2023-07-31T04:02:42;99018.78;;;21.65;100.00
11327;BME280;5718;42.138;24.762;2023-07-31T04:05:09;99002.31;;;21.42;100.00
11327;BME280;5718;42.138;24.762;2023-07-31T04:07:36;99021.75;;;21.41;100.00
11327;BME280;5718;42.138;24.762;2023-07-31T04:10:03;99015.03;;;21.36;100.00
11327;BME280;5718;42.138;24.762;2023-07-31T04:12:30;99019.03;;;21.43;100.00
11327;BME280;5718;42.138;24.762;2023-07-31T04:14:57;99015.94;;;21.35;100.00
11327;BME280;5718;42.138;24.762;2023-07-31T04:17:23;99018.88;;;21.46;100.00
11327;BME280;5718;42.138;24.762;2023-07-31T04:19:52;99018.56;;;21.35;100.00
11327;BME280;5718;42.138;24.762;2023-07-31T04:22:18;99021.94;;;21.38;100.00
11327;BME280;5718;42.138;24.762;2023-07-31T04:24:45;99030.63;;;21.40;100.00
11327;BME280;5718;42.138;24.762;2023-07-31T04:27:12;99029.47;;;21.46;100.00
11327;BME280;5718;42.138;24.762;2023-07-31T04:29:38;99023.38;;;21.61;100.00
11327;BME280;5718;42.138;24.762;2023-07-31T04:32:07;99028.16;;;21.70;100.00
11327;BME280;5718;42.138;24.762;2023-07-31T04:34:34;99035.16;;;21.71;100.00
11327;BME280;5718;42.138;24.762;2023-07-31T04:37:03;99036.19;;;21.84;100.00
11327;BME280;5718;42.138;24.762;2023-07-31T04:39:29;99040.28;;;21.74;100.00
11327;BME280;5718;42.138;24.762;2023-07-31T04:41:56;99039.16;;;21.96;100.00
11327;BME280;5718;42.138;24.762;2023-07-31T04:44:23;99034.44;;;21.85;100.00
11327;BME280;5718;42.138;24.762;2023-07-31T04:46:49;99033.69;;;21.99;100.00
11327;BME280;5718;42.138;24.762;2023-07-31T04:49:16;99032.91;;;21.97;100.00
11327;BME280;5718;42.138;24.762;2023-07-31T04:51:44;99030.09;;;22.00;100.00
11327;BME280;5718;42.138;24.762;2023-07-31T04:54:12;99035.25;;;22.03;100.00
11327;BME280;5718;42.138;24.762;2023-07-31T04:56:40;99034.75;;;22.12;100.00
11327;BME280;5718;42.138;24.762;2023-07-31T04:59:07;99035.97;;;22.22;100.00
11327;BME280;5718;42.138;24.762;2023-07-31T05:01:33;99027.00;;;22.40;100.00
11327;BME280;5718;42.138;24.762;2023-07-31T05:04:00;99027.41;;;22.33;100.00
11327;BME280;5718;42.138;24.762;2023-07-31T05:06:29;99031.63;;;22.37;100.00
11327;BME280;5718;42.138;24.762;2023-07-31T05:09:00;99027.28;;;22.82;100.00
11327;BME280;5718;42.138;24.762;2023-07-31T05:11:28;99042.44;;;22.95;100.00
11327;BME280;5718;42.138;24.762;2023-07-31T05:13:55;99035.25;;;22.82;100.00
11327;BME280;5718;42.138;24.762;2023-07-31T05:16:21;99029.44;;;22.75;100.00
11327;BME280;5718;42.138;24.762;2023-07-31T05:18:48;99025.88;;;22.76;100.00
11327;BME280;5718;42.138;24.762;2023-07-31T05:21:15;99026.28;;;22.84;100.00
11327;BME280;5718;42.138;24.762;2023-07-31T05:23:42;99028.00;;;22.69;100.00
11327;BME280;5718;42.138;24.762;2023-07-31T05:26:08;99027.47;;;22.79;100.00
11327;BME280;5718;42.138;24.762;2023-07-31T05:28:37;99030.09;;;23.10;100.00
11327;BME280;5718;42.138;24.762;2023-07-31T05:31:04;99031.94;;;22.94;100.00
11327;BME280;5718;42.138;24.762;2023-07-31T05:33:32;99041.44;;;23.12;100.00
11327;BME280;5718;42.138;24.762;2023-07-31T05:35:59;99044.53;;;23.05;100.00
11327;BME280;5718;42.138;24.762;2023-07-31T05:38:26;99048.34;;;23.15;100.00
11327;BME280;5718;42.138;24.762;2023-07-31T05:40:52;99045.50;;;23.48;100.00
11327;BME280;5718;42.138;24.762;2023-07-31T05:43:19;99059.03;;;23.43;100.00
11327;BME280;5718;42.138;24.762;2023-07-31T05:45:47;99055.75;;;23.54;100.00
11327;BME280;5718;42.138;24.762;2023-07-31T05:48:14;99059.44;;;23.51;100.00
11327;BME280;5718;42.138;24.762;2023-07-31T05:50:40;99057.59;;;23.38;100.00
11327;BME280;5718;42.138;24.762;2023-07-31T05:53:07;99056.44;;;23.27;100.00
11327;BME280;5718;42.138;24.762;2023-07-31T05:55:35;99061.31;;;23.35;100.00
11327;BME280;5718;42.138;24.762;2023-07-31T05:58:02;99051.84;;;23.45;100.00
11327;BME280;5718;42.138;24.762;2023-07-31T06:00:29;99069.66;;;23.58;100.00
11327;BME280;5718;42.138;24.762;2023-07-31T06:02:57;99066.13;;;23.73;100.00
11327;BME280;5718;42.138;24.762;2023-07-31T06:05:23;99069.28;;;24.08;100.00
11327;BME280;5718;42.138;24.762;2023-07-31T06:07:51;99061.50;;;24.33;100.00
11327;BME280;5718;42.138;24.762;2023-07-31T06:10:18;99064.78;;;24.51;100.00
11327;BME280;5718;42.138;24.762;2023-07-31T06:12:44;99060.72;;;24.73;100.00
11327;BME280;5718;42.138;24.762;2023-07-31T06:15:11;99066.19;;;24.57;100.00
11327;BME280;5718;42.138;24.762;2023-07-31T06:17:38;99057.38;;;24.83;100.00
11327;BME280;5718;42.138;24.762;2023-07-31T06:20:08;99061.38;;;25.30;100.00
11327;BME280;5718;42.138;24.762;2023-07-31T06:22:35;99058.59;;;25.32;100.00
11327;BME280;5718;42.138;24.762;2023-07-31T06:25:02;99060.84;;;25.25;100.00
11327;BME280;5718;42.138;24.762;2023-07-31T06:27:29;99059.50;;;25.05;100.00
11327;BME280;5718;42.138;24.762;2023-07-31T06:29:56;99063.38;;;25.27;100.00
11327;BME280;5718;42.138;24.762;2023-07-31T06:32:23;99067.19;;;25.23;100.00
11327;BME280;5718;42.138;24.762;2023-07-31T06:34:49;99047.66;;;25.36;100.00
11327;BME280;5718;42.138;24.762;2023-07-31T06:37:18;99053.53;;;25.54;100.00
11327;BME280;5718;42.138;24.762;2023-07-31T06:39:44;99048.00;;;25.70;100.00
11327;BME280;5718;42.138;24.762;2023-07-31T06:42:11;99042.69;;;25.95;100.00
11327;BME280;5718;42.138;24.762;2023-07-31T06:44:38;99044.50;;;25.69;100.00
11327;BME280;5718;42.138;24.762;2023-07-31T06:47:05;99034.81;;;25.81;100.00
11327;BME280;5718;42.138;24.762;2023-07-31T06:49:32;99033.09;;;26.05;100.00
11327;BME280;5718;42.138;24.762;2023-07-31T06:51:58;99038.09;;;26.10;100.00
11327;BME280;5718;42.138;24.762;2023-07-31T06:54:26;99040.09;;;26.19;100.00
11327;BME280;5718;42.138;24.762;2023-07-31T06:56:53;99041.34;;;26.39;100.00
11327;BME280;5718;42.138;24.762;2023-07-31T06:59:20;99034.19;;;26.76;100.00
11327;BME280;5718;42.138;24.762;2023-07-31T07:01:46;99045.84;;;26.75;100.00
11327;BME280;5718;42.138;24.762;2023-07-31T07:04:13;99041.44;;;27.22;100.00
11327;BME280;5718;42.138;24.762;2023-07-31T07:06:40;99042.22;;;27.47;100.00
11327;BME280;5718;42.138;24.762;2023-07-31T07:09:07;99036.72;;;27.72;100.00
11327;BME280;5718;42.138;24.762;2023-07-31T07:11:35;99039.28;;;27.85;100.00
11327;BME280;5718;42.138;24.762;2023-07-31T07:14:02;99040.06;;;27.63;100.00
11327;BME280;5718;42.138;24.762;2023-07-31T07:16:29;99041.63;;;27.89;100.00
11327;BME280;5718;42.138;24.762;2023-07-31T07:18:56;99039.31;;;27.74;100.00
11327;BME280;5718;42.138;24.762;2023-07-31T07:21:23;99036.88;;;27.82;100.00
11327;BME280;5718;42.138;24.762;2023-07-31T07:23:49;99036.28;;;27.43;100.00
11327;BME280;5718;42.138;24.762;2023-07-31T07:26:16;99040.88;;;27.98;100.00
11327;BME280;5718;42.138;24.762;2023-07-31T07:28:44;99036.81;;;27.59;100.00
11327;BME280;5718;42.138;24.762;2023-07-31T07:31:11;99030.38;;;27.62;100.00
11327;BME280;5718;42.138;24.762;2023-07-31T07:33:37;99027.28;;;28.02;100.00
11327;BME280;5718;42.138;24.762;2023-07-31T07:36:04;99035.28;;;28.02;100.00
11327;BME280;5718;42.138;24.762;2023-07-31T07:38:35;99038.19;;;27.76;100.00
11327;BME280;5718;42.138;24.762;2023-07-31T07:41:01;99041.38;;;27.81;100.00
11327;BME280;5718;42.138;24.762;2023-07-31T07:43:28;99039.28;;;27.96;100.00
11327;BME280;5718;42.138;24.762;2023-07-31T07:45:56;99021.81;;;28.48;100.00
11327;BME280;5718;42.138;24.762;2023-07-31T07:48:23;99029.78;;;28.59;100.00
11327;BME280;5718;42.138;24.762;2023-07-31T07:50:50;99025.81;;;28.42;100.00
11327;BME280;5718;42.138;24.762;2023-07-31T07:53:17;99032.47;;;29.02;100.00
11327;BME280;5718;42.138;24.762;2023-07-31T07:55:43;99028.16;;;28.90;100.00
11327;BME280;5718;42.138;24.762;2023-07-31T07:58:10;99030.56;;;28.93;100.00
11327;BME280;5718;42.138;24.762;2023-07-31T08:00:37;99032.84;;;28.43;100.00
11327;BME280;5718;42.138;24.762;2023-07-31T08:03:05;99033.56;;;28.45;100.00
11327;BME280;5718;42.138;24.762;2023-07-31T08:05:32;99029.25;;;28.33;100.00
11327;BME280;5718;42.138;24.762;2023-07-31T08:07:59;99032.09;;;28.52;100.00
11327;BME280;5718;42.138;24.762;2023-07-31T08:10:26;99024.13;;;29.17;100.00
11327;BME280;5718;42.138;24.762;2023-07-31T08:12:53;99029.31;;;28.86;100.00
11327;BME280;5718;42.138;24.762;2023-07-31T08:15:19;99026.75;;;28.64;100.00
11327;BME280;5718;42.138;24.762;2023-07-31T08:17:46;99021.31;;;28.86;99.12
11327;BME280;5718;42.138;24.762;2023-07-31T08:20:14;99019.25;;;29.22;95.92
11327;BME280;5718;42.138;24.762;2023-07-31T08:22:41;99022.97;;;29.30;95.07
11327;BME280;5718;42.138;24.762;2023-07-31T08:25:08;99019.50;;;29.19;96.84
11327;BME280;5718;42.138;24.762;2023-07-31T08:27:35;99017.81;;;29.38;95.14
11327;BME280;5718;42.138;24.762;2023-07-31T08:30:01;99019.63;;;30.10;89.95
11327;BME280;5718;42.138;24.762;2023-07-31T08:32:28;99016.41;;;30.16;88.28
11327;BME280;5718;42.138;24.762;2023-07-31T08:34:55;99016.28;;;30.28;86.81
11327;BME280;5718;42.138;24.762;2023-07-31T08:37:23;99014.44;;;30.18;86.95
11327;BME280;5718;42.138;24.762;2023-07-31T08:39:50;99016.13;;;29.58;91.54
11327;BME280;5718;42.138;24.762;2023-07-31T08:42:17;99016.56;;;29.43;93.14
11327;BME280;5718;42.138;24.762;2023-07-31T08:44:43;99024.06;;;29.49;91.15
11327;BME280;5718;42.138;24.762;2023-07-31T08:47:10;99017.63;;;29.51;90.89
11327;BME280;5718;42.138;24.762;2023-07-31T08:49:38;99017.28;;;29.65;89.01
11327;BME280;5718;42.138;24.762;2023-07-31T08:52:06;99018.00;;;29.98;84.02
11327;BME280;5718;42.138;24.762;2023-07-31T08:54:35;99018.81;;;30.19;80.74
11327;BME280;5718;42.138;24.762;2023-07-31T08:57:02;99016.97;;;30.20;80.06
11327;BME280;5718;42.138;24.762;2023-07-31T08:59:30;99014.91;;;29.62;85.11
11327;BME280;5718;42.138;24.762;2023-07-31T09:02:03;99017.72;;;29.71;83.56
11327;BME280;5718;42.138;24.762;2023-07-31T09:04:32;99018.69;;;29.90;82.00
11327;BME280;5718;42.138;24.762;2023-07-31T09:07:00;99011.75;;;29.16;86.28
11327;BME280;5718;42.138;24.762;2023-07-31T09:09:28;99011.78;;;29.04;88.55
11327;BME280;5718;42.138;24.762;2023-07-31T09:11:57;99014.34;;;29.27;87.43
11327;BME280;5718;42.138;24.762;2023-07-31T09:14:25;99015.25;;;29.37;86.65
11327;BME280;5718;42.138;24.762;2023-07-31T09:16:53;99027.16;;;30.26;80.08
11327;BME280;5718;42.138;24.762;2023-07-31T09:19:29;99020.19;;;30.54;73.14
11327;BME280;5718;42.138;24.762;2023-07-31T09:21:55;99017.69;;;31.40;67.45
11327;BME280;5718;42.138;24.762;2023-07-31T09:24:28;99011.06;;;30.86;70.21
11327;BME280;5718;42.138;24.762;2023-07-31T09:26:57;99020.28;;;31.22;68.55
11327;BME280;5718;42.138;24.762;2023-07-31T09:29:25;99013.19;;;30.92;66.86
11327;BME280;5718;42.138;24.762;2023-07-31T09:31:53;98998.44;;;30.57;71.04
11327;BME280;5718;42.138;24.762;2023-07-31T09:34:20;98993.97;;;31.16;68.24
11327;BME280;5718;42.138;24.762;2023-07-31T09:36:54;98997.19;;;31.19;66.32
11327;BME280;5718;42.138;24.762;2023-07-31T09:39:22;99000.06;;;31.08;65.54
11327;BME280;5718;42.138;24.762;2023-07-31T09:41:54;98994.63;;;30.50;69.16
11327;BME280;5718;42.138;24.762;2023-07-31T09:44:37;98991.59;;;29.84;73.41
11327;BME280;5718;42.138;24.762;2023-07-31T09:47:05;98990.69;;;29.74;73.25
11327;BME280;5718;42.138;24.762;2023-07-31T09:49:31;98991.72;;;30.92;66.43
11327;BME280;5718;42.138;24.762;2023-07-31T09:51:59;98991.03;;;31.75;60.00
11327;BME280;5718;42.138;24.762;2023-07-31T09:54:25;98999.28;;;32.38;56.95
11327;BME280;5718;42.138;24.762;2023-07-31T09:56:52;98998.28;;;32.57;55.69
11327;BME280;5718;42.138;24.762;2023-07-31T09:59:22;98991.28;;;31.35;58.25
11327;BME280;5718;42.138;24.762;2023-07-31T10:01:49;98994.81;;;31.26;60.95
11327;BME280;5718;42.138;24.762;2023-07-31T10:04:17;98994.44;;;31.77;56.63
11327;BME280;5718;42.138;24.762;2023-07-31T10:06:49;98994.00;;;31.72;55.13
11327;BME280;5718;42.138;24.762;2023-07-31T10:09:17;98989.41;;;32.29;52.99
11327;BME280;5718;42.138;24.762;2023-07-31T10:11:47;98980.66;;;32.18;53.77
11327;BME280;5718;42.138;24.762;2023-07-31T10:14:19;98979.19;;;32.78;53.23
11327;BME280;5718;42.138;24.762;2023-07-31T10:16:48;98975.94;;;32.57;55.27
11327;BME280;5718;42.138;24.762;2023-07-31T10:19:16;98978.25;;;31.97;55.48
11327;BME280;5718;42.138;24.762;2023-07-31T10:21:43;98975.63;;;31.68;58.42
11327;BME280;5718;42.138;24.762;2023-07-31T10:24:11;98974.19;;;32.10;56.51
11327;BME280;5718;42.138;24.762;2023-07-31T10:26:38;98955.72;;;32.53;54.44
11327;BME280;5718;42.138;24.762;2023-07-31T10:29:06;98962.31;;;32.58;54.95
11327;BME280;5718;42.138;24.762;2023-07-31T10:31:34;98955.56;;;32.72;52.10
11327;BME280;5718;42.138;24.762;2023-07-31T10:34:03;98956.56;;;31.71;55.18
11327;BME280;5718;42.138;24.762;2023-07-31T10:36:30;98952.28;;;31.41;58.10
11327;BME280;5718;42.138;24.762;2023-07-31T10:38:56;98945.81;;;31.24;59.67
11327;BME280;5718;42.138;24.762;2023-07-31T10:41:28;98945.25;;;32.04;55.20
11327;BME280;5718;42.138;24.762;2023-07-31T10:43:57;98936.22;;;32.23;55.58
11327;BME280;5718;42.138;24.762;2023-07-31T10:46:24;98944.97;;;32.53;52.99
11327;BME280;5718;42.138;24.762;2023-07-31T10:48:57;98937.59;;;32.55;53.00
11327;BME280;5718;42.138;24.762;2023-07-31T10:51:32;98931.44;;;32.17;55.37
11327;BME280;5718;42.138;24.762;2023-07-31T10:54:11;98924.75;;;32.66;52.60
11327;BME280;5718;42.138;24.762;2023-07-31T10:56:38;98925.22;;;33.23;50.75
11327;BME280;5718;42.138;24.762;2023-07-31T10:59:05;98922.97;;;33.71;46.74
11327;BME280;5718;42.138;24.762;2023-07-31T11:01:50;98921.56;;;33.93;46.68
11327;BME280;5718;42.138;24.762;2023-07-31T11:04:22;98919.69;;;33.85;47.32
11327;BME280;5718;42.138;24.762;2023-07-31T11:06:57;98912.47;;;33.08;47.96
11327;BME280;5718;42.138;24.762;2023-07-31T11:09:26;98918.25;;;33.65;46.85
11327;BME280;5718;42.138;24.762;2023-07-31T11:11:54;98927.78;;;33.85;45.75
11327;BME280;5718;42.138;24.762;2023-07-31T11:14:21;98912.06;;;32.94;55.29
11327;BME280;5718;42.138;24.762;2023-07-31T11:16:49;98925.00;;;33.17;57.84
11327;BME280;5718;42.138;24.762;2023-07-31T11:19:21;98929.31;;;32.21;59.91
11327;BME280;5718;42.138;24.762;2023-07-31T11:21:48;98937.38;;;31.56;67.54
11327;BME280;5718;42.138;24.762;2023-07-31T11:24:16;98924.22;;;30.38;81.75
11327;BME280;5718;42.138;24.762;2023-07-31T11:26:49;98915.53;;;29.96;87.74
11327;BME280;5718;42.138;24.762;2023-07-31T11:29:15;98926.22;;;29.56;90.37
11327;BME280;5718;42.138;24.762;2023-07-31T11:31:42;98916.88;;;28.88;93.95
11327;BME280;5718;42.138;24.762;2023-07-31T11:34:09;98916.50;;;28.28;97.32
11327;BME280;5718;42.138;24.762;2023-07-31T11:36:36;98918.59;;;28.36;97.74
11327;BME280;5718;42.138;24.762;2023-07-31T11:39:07;98906.13;;;28.57;97.17
11327;BME280;5718;42.138;24.762;2023-07-31T11:41:35;98918.56;;;29.00;93.75
11327;BME280;5718;42.138;24.762;2023-07-31T11:44:02;98913.72;;;29.45;91.72
11327;BME280;5718;42.138;24.762;2023-07-31T11:46:30;98902.97;;;29.97;85.49
11327;BME280;5718;42.138;24.762;2023-07-31T11:48:59;98908.69;;;30.13;80.35
11327;BME280;5718;42.138;24.762;2023-07-31T11:51:27;98913.50;;;30.29;77.34
11327;BME280;5718;42.138;24.762;2023-07-31T11:53:57;98914.91;;;30.23;77.34
11327;BME280;5718;42.138;24.762;2023-07-31T11:56:26;98891.50;;;30.54;76.94
11327;BME280;5718;42.138;24.762;2023-07-31T11:58:57;98903.38;;;30.71;70.69
11327;BME280;5718;42.138;24.762;2023-07-31T12:01:26;98905.88;;;30.34;79.64
11327;BME280;5718;42.138;24.762;2023-07-31T12:03:54;98901.84;;;29.99;82.37
11327;BME280;5718;42.138;24.762;2023-07-31T12:06:21;98905.47;;;30.38;83.30
11327;BME280;5718;42.138;24.762;2023-07-31T12:08:48;98903.97;;;30.05;82.95
11327;BME280;5718;42.138;24.762;2023-07-31T12:11:15;98895.00;;;30.45;82.01
11327;BME280;5718;42.138;24.762;2023-07-31T12:13:43;98887.13;;;30.63;79.89
11327;BME280;5718;42.138;24.762;2023-07-31T12:16:11;98893.47;;;30.81;76.58
11327;BME280;5718;42.138;24.762;2023-07-31T12:18:38;98885.28;;;30.73;79.03
11327;BME280;5718;42.138;24.762;2023-07-31T12:21:07;98888.09;;;30.91;78.84
11327;BME280;5718;42.138;24.762;2023-07-31T12:23:36;98885.41;;;30.91;75.01
11327;BME280;5718;42.138;24.762;2023-07-31T12:26:04;98874.00;;;31.36;72.22
11327;BME280;5718;42.138;24.762;2023-07-31T12:28:35;98874.09;;;31.44;71.23
11327;BME280;5718;42.138;24.762;2023-07-31T12:31:02;98870.03;;;31.67;69.43
11327;BME280;5718;42.138;24.762;2023-07-31T12:33:32;98867.22;;;31.78;69.52
11327;BME280;5718;42.138;24.762;2023-07-31T12:36:01;98866.75;;;32.01;66.63
11327;BME280;5718;42.138;24.762;2023-07-31T12:38:28;98855.63;;;31.96;66.83
11327;BME280;5718;42.138;24.762;2023-07-31T12:40:55;98858.53;;;32.02;64.03
11327;BME280;5718;42.138;24.762;2023-07-31T12:43:21;98859.09;;;31.88;65.00
11327;BME280;5718;42.138;24.762;2023-07-31T12:45:48;98865.22;;;31.98;56.03
11327;BME280;5718;42.138;24.762;2023-07-31T12:48:15;98857.06;;;32.53;54.68
11327;BME280;5718;42.138;24.762;2023-07-31T12:50:43;98863.81;;;32.57;58.42
11327;BME280;5718;42.138;24.762;2023-07-31T12:53:10;98862.13;;;32.38;58.34
11327;BME280;5718;42.138;24.762;2023-07-31T12:55:37;98853.72;;;32.24;56.75
11327;BME280;5718;42.138;24.762;2023-07-31T12:58:04;98856.91;;;32.19;55.46